sensor_id;sensor_type;location;lat;lon;timestamp;P1;durP1;ratioP1;P2;durP2;ratioP2
67805;SDS011;54603;45.638;11.714;2024-02-21T00:00:57;15.30;;;11.70;;
67805;SDS011;54603;45.638;11.714;2024-02-21T00:03:23;14.00;;;11.60;;
67805;SDS011;54603;45.638;11.714;2024-02-21T00:05:48;14.40;;;10.40;;
67805;SDS011;54603;45.638;11.714;2024-02-21T00:08:15;16.40;;;12.40;;
67805;SDS011;54603;45.638;11.714;2024-02-21T00:10:41;16.30;;;12.30;;
67805;SDS011;54603;45.638;11.714;2024-02-21T00:13:06;15.70;;;12.70;;
67805;SDS011;54603;45.638;11.714;2024-02-21T00:15:32;13.00;;;11.00;;
67805;SDS011;54603;45.638;11.714;2024-02-21T00:17:58;13.40;;;10.90;;
67805;SDS011;54603;45.638;11.714;2024-02-21T00:20:24;13.70;;;10.20;;
67805;SDS011;54603;45.638;11.714;2024-02-21T00:22:51;15.20;;;11.80;;
67805;SDS011;54603;45.638;11.714;2024-02-21T00:25:17;14.90;;;11.70;;
67805;SDS011;54603;45.638;11.714;2024-02-21T00:27:43;15.70;;;13.20;;
67805;SDS011;54603;45.638;11.714;2024-02-21T00:30:10;18.70;;;13.90;;
67805;SDS011;54603;45.638;11.714;2024-02-21T00:32:36;18.90;;;13.90;;
67805;SDS011;54603;45.638;11.714;2024-02-21T00:35:02;17.90;;;13.60;;
67805;SDS011;54603;45.638;11.714;2024-02-21T00:37:28;15.30;;;13.00;;
67805;SDS011;54603;45.638;11.714;2024-02-21T00:39:54;16.00;;;12.90;;
67805;SDS011;54603;45.638;11.714;2024-02-21T00:42:20;17.00;;;14.50;;
67805;SDS011;54603;45.638;11.714;2024-02-21T00:44:47;20.50;;;15.40;;
67805;SDS011;54603;45.638;11.714;2024-02-21T00:47:13;18.20;;;13.60;;
67805;SDS011;54603;45.638;11.714;2024-02-21T00:49:40;19.20;;;13.90;;
67805;SDS011;54603;45.638;11.714;2024-02-21T00:52:06;18.40;;;15.10;;
67805;SDS011;54603;45.638;11.714;2024-02-21T00:54:31;14.30;;;12.30;;
67805;SDS011;54603;45.638;11.714;2024-02-21T00:56:57;14.40;;;10.50;;
67805;SDS011;54603;45.638;11.714;2024-02-21T00:59:23;12.70;;;11.20;;
67805;SDS011;54603;45.638;11.714;2024-02-21T01:01:49;13.90;;;11.80;;
67805;SDS011;54603;45.638;11.714;2024-02-21T01:04:15;13.10;;;10.90;;
67805;SDS011;54603;45.638;11.714;2024-02-21T01:06:41;13.30;;;11.00;;
67805;SDS011;54603;45.638;11.714;2024-02-21T01:09:09;15.10;;;11.20;;
67805;SDS011;54603;45.638;11.714;2024-02-21T01:11:36;13.30;;;11.20;;
67805;SDS011;54603;45.638;11.714;2024-02-21T01:14:02;14.40;;;11.10;;
67805;SDS011;54603;45.638;11.714;2024-02-21T01:16:28;15.50;;;11.30;;
67805;SDS011;54603;45.638;11.714;2024-02-21T01:18:54;13.40;;;10.80;;
67805;SDS011;54603;45.638;11.714;2024-02-21T01:21:20;13.40;;;10.60;;
67805;SDS011;54603;45.638;11.714;2024-02-21T01:23:46;12.30;;;10.50;;
67805;SDS011;54603;45.638;11.714;2024-02-21T01:26:11;13.20;;;11.60;;
67805;SDS011;54603;45.638;11.714;2024-02-21T01:28:40;14.10;;;11.00;;
67805;SDS011;54603;45.638;11.714;2024-02-21T01:31:06;13.90;;;11.20;;
67805;SDS011;54603;45.638;11.714;2024-02-21T01:33:32;14.50;;;12.10;;
67805;SDS011;54603;45.638;11.714;2024-02-21T01:36:05;12.70;;;11.40;;
67805;SDS011;54603;45.638;11.714;2024-02-21T01:38:34;14.70;;;12.90;;
67805;SDS011;54603;45.638;11.714;2024-02-21T01:41:00;14.30;;;12.30;;
67805;SDS011;54603;45.638;11.714;2024-02-21T01:43:26;15.60;;;12.30;;
67805;SDS011;54603;45.638;11.714;2024-02-21T01:45:55;14.10;;;11.60;;
67805;SDS011;54603;45.638;11.714;2024-02-21T01:48:22;16.90;;;13.30;;
67805;SDS011;54603;45.638;11.714;2024-02-21T01:50:53;12.20;;;10.90;;
67805;SDS011;54603;45.638;11.714;2024-02-21T01:53:32;12.40;;;10.70;;
67805;SDS011;54603;45.638;11.714;2024-02-21T01:56:01;12.60;;;11.00;;
67805;SDS011;54603;45.638;11.714;2024-02-21T01:58:29;12.40;;;10.60;;
67805;SDS011;54603;45.638;11.714;2024-02-21T02:00:56;13.10;;;10.90;;
67805;SDS011;54603;45.638;11.714;2024-02-21T02:03:22;12.40;;;10.60;;
67805;SDS011;54603;45.638;11.714;2024-02-21T02:05:49;14.10;;;11.10;;
67805;SDS011;54603;45.638;11.714;2024-02-21T02:08:17;14.90;;;10.60;;
67805;SDS011;54603;45.638;11.714;2024-02-21T02:10:55;12.10;;;10.40;;
67805;SDS011;54603;45.638;11.714;2024-02-21T02:13:21;12.10;;;10.60;;
67805;SDS011;54603;45.638;11.714;2024-02-21T02:15:48;12.90;;;10.70;;
67805;SDS011;54603;45.638;11.714;2024-02-21T02:18:15;16.00;;;11.10;;
67805;SDS011;54603;45.638;11.714;2024-02-21T02:20:43;13.10;;;10.70;;
67805;SDS011;54603;45.638;11.714;2024-02-21T02:23:11;12.60;;;10.90;;
67805;SDS011;54603;45.638;11.714;2024-02-21T02:25:40;14.40;;;11.50;;
67805;SDS011;54603;45.638;11.714;2024-02-21T02:28:06;14.60;;;11.40;;
67805;SDS011;54603;45.638;11.714;2024-02-21T02:30:33;12.70;;;10.60;;
67805;SDS011;54603;45.638;11.714;2024-02-21T02:33:02;14.10;;;12.50;;
67805;SDS011;54603;45.638;11.714;2024-02-21T02:35:28;14.50;;;11.90;;
67805;SDS011;54603;45.638;11.714;2024-02-21T02:37:54;12.50;;;10.70;;
67805;SDS011;54603;45.638;11.714;2024-02-21T02:40:20;14.40;;;11.30;;
67805;SDS011;54603;45.638;11.714;2024-02-21T02:42:47;12.80;;;10.40;;
67805;SDS011;54603;45.638;11.714;2024-02-21T02:45:15;13.10;;;10.40;;
67805;SDS011;54603;45.638;11.714;2024-02-21T02:47:43;11.80;;;10.10;;
67805;SDS011;54603;45.638;11.714;2024-02-21T02:50:11;12.90;;;11.30;;
67805;SDS011;54603;45.638;11.714;2024-02-21T02:52:37;12.70;;;10.80;;
67805;SDS011;54603;45.638;11.714;2024-02-21T02:55:04;13.60;;;11.80;;
67805;SDS011;54603;45.638;11.714;2024-02-21T02:57:31;15.80;;;12.20;;
67805;SDS011;54603;45.638;11.714;2024-02-21T02:59:57;15.10;;;10.90;;
67805;SDS011;54603;45.638;11.714;2024-02-21T03:02:23;12.90;;;11.50;;
67805;SDS011;54603;45.638;11.714;2024-02-21T03:04:49;14.30;;;11.50;;
67805;SDS011;54603;45.638;11.714;2024-02-21T03:07:16;12.90;;;11.30;;
67805;SDS011;54603;45.638;11.714;2024-02-21T03:09:42;13.90;;;10.90;;
67805;SDS011;54603;45.638;11.714;2024-02-21T03:12:09;12.40;;;10.00;;
67805;SDS011;54603;45.638;11.714;2024-02-21T03:14:35;11.90;;;10.00;;
67805;SDS011;54603;45.638;11.714;2024-02-21T03:17:02;13.30;;;10.00;;
67805;SDS011;54603;45.638;11.714;2024-02-21T03:19:29;11.30;;;9.70;;
67805;SDS011;54603;45.638;11.714;2024-02-21T03:21:55;11.20;;;10.00;;
67805;SDS011;54603;45.638;11.714;2024-02-21T03:24:22;11.40;;;10.20;;
67805;SDS011;54603;45.638;11.714;2024-02-21T03:26:48;13.10;;;10.40;;
67805;SDS011;54603;45.638;11.714;2024-02-21T03:29:15;14.70;;;11.20;;
67805;SDS011;54603;45.638;11.714;2024-02-21T03:31:42;12.00;;;10.70;;
67805;SDS011;54603;45.638;11.714;2024-02-21T03:34:10;12.00;;;10.00;;
67805;SDS011;54603;45.638;11.714;2024-02-21T03:36:37;10.60;;;9.20;;
67805;SDS011;54603;45.638;11.714;2024-02-21T03:39:03;11.00;;;9.50;;
67805;SDS011;54603;45.638;11.714;2024-02-21T03:41:29;14.10;;;10.20;;
67805;SDS011;54603;45.638;11.714;2024-02-21T03:43:55;11.10;;;9.50;;
67805;SDS011;54603;45.638;11.714;2024-02-21T03:46:22;11.50;;;10.10;;
67805;SDS011;54603;45.638;11.714;2024-02-21T03:48:49;13.60;;;10.60;;
67805;SDS011;54603;45.638;11.714;2024-02-21T03:51:14;12.80;;;10.50;;
67805;SDS011;54603;45.638;11.714;2024-02-21T03:53:41;11.30;;;10.00;;
67805;SDS011;54603;45.638;11.714;2024-02-21T03:56:06;12.40;;;10.20;;
67805;SDS011;54603;45.638;11.714;2024-02-21T03:58:33;12.90;;;9.90;;
67805;SDS011;54603;45.638;11.714;2024-02-21T04:01:02;14.00;;;10.90;;
67805;SDS011;54603;45.638;11.714;2024-02-21T04:03:30;14.30;;;10.50;;
67805;SDS011;54603;45.638;11.714;2024-02-21T04:05:56;11.80;;;9.70;;
67805;SDS011;54603;45.638;11.714;2024-02-21T04:08:22;11.30;;;9.80;;
67805;SDS011;54603;45.638;11.714;2024-02-21T04:10:48;14.00;;;9.80;;
67805;SDS011;54603;45.638;11.714;2024-02-21T04:13:14;11.40;;;9.50;;
67805;SDS011;54603;45.638;11.714;2024-02-21T04:15:40;11.10;;;9.90;;
67805;SDS011;54603;45.638;11.714;2024-02-21T04:18:06;12.20;;;10.20;;
67805;SDS011;54603;45.638;11.714;2024-02-21T04:20:32;11.50;;;9.70;;
67805;SDS011;54603;45.638;11.714;2024-02-21T04:22:59;12.30;;;9.70;;
67805;SDS011;54603;45.638;11.714;2024-02-21T04:25:25;12.00;;;9.80;;
67805;SDS011;54603;45.638;11.714;2024-02-21T04:27:52;12.20;;;9.60;;
67805;SDS011;54603;45.638;11.714;2024-02-21T04:30:18;11.40;;;9.80;;
67805;SDS011;54603;45.638;11.714;2024-02-21T04:32:45;11.00;;;9.60;;
67805;SDS011;54603;45.638;11.714;2024-02-21T04:35:10;12.70;;;10.30;;
67805;SDS011;54603;45.638;11.714;2024-02-21T04:37:36;11.40;;;9.50;;
67805;SDS011;54603;45.638;11.714;2024-02-21T04:40:02;10.50;;;9.40;;
67805;SDS011;54603;45.638;11.714;2024-02-21T04:42:29;10.90;;;9.10;;
67805;SDS011;54603;45.638;11.714;2024-02-21T04:44:55;11.00;;;9.50;;
67805;SDS011;54603;45.638;11.714;2024-02-21T04:47:22;11.10;;;9.80;;
67805;SDS011;54603;45.638;11.714;2024-02-21T04:49:52;11.80;;;8.80;;
67805;SDS011;54603;45.638;11.714;2024-02-21T04:52:18;10.80;;;9.40;;
67805;SDS011;54603;45.638;11.714;2024-02-21T04:54:43;10.30;;;9.20;;
67805;SDS011;54603;45.638;11.714;2024-02-21T04:57:09;10.40;;;9.00;;
67805;SDS011;54603;45.638;11.714;2024-02-21T04:59:44;10.40;;;9.20;;
67805;SDS011;54603;45.638;11.714;2024-02-21T05:02:10;10.30;;;9.00;;
67805;SDS011;54603;45.638;11.714;2024-02-21T05:04:36;9.90;;;8.90;;
67805;SDS011;54603;45.638;11.714;2024-02-21T05:07:04;11.00;;;8.60;;
67805;SDS011;54603;45.638;11.714;2024-02-21T05:09:30;11.30;;;9.70;;
67805;SDS011;54603;45.638;11.714;2024-02-21T05:11:56;10.70;;;8.60;;
67805;SDS011;54603;45.638;11.714;2024-02-21T05:14:25;10.60;;;8.60;;
67805;SDS011;54603;45.638;11.714;2024-02-21T05:16:53;11.00;;;8.90;;
67805;SDS011;54603;45.638;11.714;2024-02-21T05:19:19;10.70;;;9.20;;
67805;SDS011;54603;45.638;11.714;2024-02-21T05:21:45;10.10;;;8.80;;
67805;SDS011;54603;45.638;11.714;2024-02-21T05:24:11;9.90;;;8.80;;
67805;SDS011;54603;45.638;11.714;2024-02-21T05:26:37;10.10;;;9.00;;
67805;SDS011;54603;45.638;11.714;2024-02-21T05:29:03;10.20;;;9.00;;
67805;SDS011;54603;45.638;11.714;2024-02-21T05:34:20;9.60;;;8.30;;
67805;SDS011;54603;45.638;11.714;2024-02-21T05:36:46;10.50;;;8.90;;
67805;SDS011;54603;45.638;11.714;2024-02-21T05:39:15;11.90;;;9.10;;
67805;SDS011;54603;45.638;11.714;2024-02-21T05:41:44;10.70;;;8.70;;
67805;SDS011;54603;45.638;11.714;2024-02-21T05:44:10;11.10;;;9.00;;
67805;SDS011;54603;45.638;11.714;2024-02-21T05:46:37;9.50;;;8.40;;
67805;SDS011;54603;45.638;11.714;2024-02-21T05:49:03;10.70;;;9.10;;
67805;SDS011;54603;45.638;11.714;2024-02-21T05:51:35;11.60;;;9.20;;
67805;SDS011;54603;45.638;11.714;2024-02-21T05:54:01;10.70;;;8.80;;
67805;SDS011;54603;45.638;11.714;2024-02-21T05:56:28;10.10;;;8.50;;
67805;SDS011;54603;45.638;11.714;2024-02-21T05:58:54;11.20;;;9.00;;
67805;SDS011;54603;45.638;11.714;2024-02-21T06:01:19;10.50;;;9.30;;
67805;SDS011;54603;45.638;11.714;2024-02-21T06:03:47;11.30;;;8.90;;
67805;SDS011;54603;45.638;11.714;2024-02-21T06:06:13;9.70;;;8.50;;
67805;SDS011;54603;45.638;11.714;2024-02-21T06:08:40;10.70;;;9.00;;
67805;SDS011;54603;45.638;11.714;2024-02-21T06:11:06;11.20;;;8.50;;
67805;SDS011;54603;45.638;11.714;2024-02-21T06:13:32;11.00;;;8.90;;
67805;SDS011;54603;45.638;11.714;2024-02-21T06:15:58;11.40;;;8.40;;
67805;SDS011;54603;45.638;11.714;2024-02-21T06:18:23;11.30;;;9.10;;
67805;SDS011;54603;45.638;11.714;2024-02-21T06:20:49;10.10;;;8.50;;
67805;SDS011;54603;45.638;11.714;2024-02-21T06:23:16;10.80;;;8.50;;
67805;SDS011;54603;45.638;11.714;2024-02-21T06:25:42;9.90;;;8.40;;
67805;SDS011;54603;45.638;11.714;2024-02-21T06:28:09;14.10;;;8.70;;
67805;SDS011;54603;45.638;11.714;2024-02-21T06:30:35;10.80;;;8.60;;
67805;SDS011;54603;45.638;11.714;2024-02-21T06:33:01;10.80;;;8.90;;
67805;SDS011;54603;45.638;11.714;2024-02-21T06:35:28;10.10;;;8.10;;
67805;SDS011;54603;45.638;11.714;2024-02-21T06:37:55;11.80;;;8.70;;
67805;SDS011;54603;45.638;11.714;2024-02-21T06:40:22;11.60;;;8.30;;
67805;SDS011;54603;45.638;11.714;2024-02-21T06:42:49;9.60;;;8.00;;
67805;SDS011;54603;45.638;11.714;2024-02-21T06:45:15;11.80;;;8.70;;
67805;SDS011;54603;45.638;11.714;2024-02-21T06:47:42;10.30;;;8.50;;
67805;SDS011;54603;45.638;11.714;2024-02-21T06:50:14;9.20;;;8.10;;
67805;SDS011;54603;45.638;11.714;2024-02-21T06:52:46;9.80;;;8.20;;
67805;SDS011;54603;45.638;11.714;2024-02-21T06:55:12;10.40;;;8.60;;
67805;SDS011;54603;45.638;11.714;2024-02-21T06:57:38;10.40;;;8.00;;
67805;SDS011;54603;45.638;11.714;2024-02-21T07:00:11;11.10;;;7.90;;
67805;SDS011;54603;45.638;11.714;2024-02-21T07:02:37;9.20;;;8.10;;
67805;SDS011;54603;45.638;11.714;2024-02-21T07:05:03;10.00;;;8.40;;
67805;SDS011;54603;45.638;11.714;2024-02-21T07:07:33;10.90;;;8.60;;
67805;SDS011;54603;45.638;11.714;2024-02-21T07:10:06;10.70;;;8.30;;
67805;SDS011;54603;45.638;11.714;2024-02-21T07:12:36;9.90;;;8.00;;
67805;SDS011;54603;45.638;11.714;2024-02-21T07:15:08;12.10;;;8.60;;
67805;SDS011;54603;45.638;11.714;2024-02-21T07:17:37;9.60;;;8.30;;
67805;SDS011;54603;45.638;11.714;2024-02-21T07:20:10;11.00;;;8.30;;
67805;SDS011;54603;45.638;11.714;2024-02-21T07:22:43;11.20;;;8.10;;
67805;SDS011;54603;45.638;11.714;2024-02-21T07:25:11;10.20;;;8.50;;
67805;SDS011;54603;45.638;11.714;2024-02-21T07:27:39;10.50;;;7.60;;
67805;SDS011;54603;45.638;11.714;2024-02-21T07:30:08;11.20;;;8.30;;
67805;SDS011;54603;45.638;11.714;2024-02-21T07:32:37;11.00;;;7.70;;
67805;SDS011;54603;45.638;11.714;2024-02-21T07:35:11;11.00;;;7.90;;
67805;SDS011;54603;45.638;11.714;2024-02-21T07:37:43;12.80;;;8.00;;
67805;SDS011;54603;45.638;11.714;2024-02-21T07:40:16;9.80;;;7.70;;
67805;SDS011;54603;45.638;11.714;2024-02-21T07:42:49;9.60;;;7.80;;
67805;SDS011;54603;45.638;11.714;2024-02-21T07:45:23;10.40;;;7.40;;
67805;SDS011;54603;45.638;11.714;2024-02-21T07:47:50;9.80;;;8.00;;
67805;SDS011;54603;45.638;11.714;2024-02-21T07:50:16;16.80;;;12.10;;
67805;SDS011;54603;45.638;11.714;2024-02-21T07:52:42;12.20;;;8.20;;
67805;SDS011;54603;45.638;11.714;2024-02-21T07:55:09;15.20;;;9.70;;
67805;SDS011;54603;45.638;11.714;2024-02-21T07:57:36;13.20;;;9.40;;
67805;SDS011;54603;45.638;11.714;2024-02-21T08:00:03;9.90;;;8.40;;
67805;SDS011;54603;45.638;11.714;2024-02-21T08:02:35;12.80;;;9.50;;
67805;SDS011;54603;45.638;11.714;2024-02-21T08:05:01;11.00;;;8.70;;
67805;SDS011;54603;45.638;11.714;2024-02-21T08:07:27;12.20;;;8.20;;
67805;SDS011;54603;45.638;11.714;2024-02-21T08:09:54;11.10;;;7.10;;
67805;SDS011;54603;45.638;11.714;2024-02-21T08:12:20;9.60;;;7.60;;
67805;SDS011;54603;45.638;11.714;2024-02-21T08:14:46;11.20;;;7.70;;
67805;SDS011;54603;45.638;11.714;2024-02-21T08:17:13;10.50;;;7.10;;
67805;SDS011;54603;45.638;11.714;2024-02-21T08:19:40;10.90;;;7.40;;
67805;SDS011;54603;45.638;11.714;2024-02-21T08:22:06;10.90;;;7.10;;
67805;SDS011;54603;45.638;11.714;2024-02-21T08:24:32;9.20;;;7.30;;
67805;SDS011;54603;45.638;11.714;2024-02-21T08:26:58;10.90;;;7.10;;
67805;SDS011;54603;45.638;11.714;2024-02-21T08:29:24;9.50;;;7.30;;
67805;SDS011;54603;45.638;11.714;2024-02-21T08:31:50;10.90;;;7.40;;
67805;SDS011;54603;45.638;11.714;2024-02-21T08:34:18;11.20;;;7.10;;
67805;SDS011;54603;45.638;11.714;2024-02-21T08:36:44;8.30;;;7.20;;
67805;SDS011;54603;45.638;11.714;2024-02-21T08:39:11;10.40;;;7.10;;
67805;SDS011;54603;45.638;11.714;2024-02-21T08:41:40;8.60;;;7.20;;
67805;SDS011;54603;45.638;11.714;2024-02-21T08:44:06;8.80;;;7.10;;
67805;SDS011;54603;45.638;11.714;2024-02-21T08:46:33;9.20;;;6.80;;
67805;SDS011;54603;45.638;11.714;2024-02-21T08:48:58;9.30;;;7.00;;
67805;SDS011;54603;45.638;11.714;2024-02-21T08:51:24;8.10;;;6.50;;
67805;SDS011;54603;45.638;11.714;2024-02-21T08:53:51;10.00;;;7.20;;
67805;SDS011;54603;45.638;11.714;2024-02-21T08:56:20;8.50;;;6.70;;
67805;SDS011;54603;45.638;11.714;2024-02-21T08:58:46;10.40;;;7.00;;
67805;SDS011;54603;45.638;11.714;2024-02-21T09:01:12;9.10;;;7.10;;
67805;SDS011;54603;45.638;11.714;2024-02-21T09:03:39;9.40;;;7.20;;
67805;SDS011;54603;45.638;11.714;2024-02-21T09:06:06;9.70;;;6.50;;
67805;SDS011;54603;45.638;11.714;2024-02-21T09:08:32;10.20;;;7.10;;
67805;SDS011;54603;45.638;11.714;2024-02-21T09:11:00;7.20;;;6.20;;
67805;SDS011;54603;45.638;11.714;2024-02-21T09:13:28;8.40;;;6.20;;
67805;SDS011;54603;45.638;11.714;2024-02-21T09:15:55;8.40;;;6.70;;
67805;SDS011;54603;45.638;11.714;2024-02-21T09:18:21;9.20;;;6.90;;
67805;SDS011;54603;45.638;11.714;2024-02-21T09:20:47;9.30;;;6.50;;
67805;SDS011;54603;45.638;11.714;2024-02-21T09:23:13;7.90;;;6.40;;
67805;SDS011;54603;45.638;11.714;2024-02-21T09:25:39;6.60;;;5.90;;
67805;SDS011;54603;45.638;11.714;2024-02-21T09:28:05;8.40;;;5.90;;
67805;SDS011;54603;45.638;11.714;2024-02-21T09:30:35;7.70;;;6.20;;
67805;SDS011;54603;45.638;11.714;2024-02-21T09:33:03;6.80;;;5.80;;
67805;SDS011;54603;45.638;11.714;2024-02-21T09:35:30;7.80;;;6.10;;
67805;SDS011;54603;45.638;11.714;2024-02-21T09:37:58;6.60;;;5.90;;
67805;SDS011;54603;45.638;11.714;2024-02-21T09:40:24;8.00;;;6.70;;
67805;SDS011;54603;45.638;11.714;2024-02-21T09:43:03;8.50;;;6.50;;
67805;SDS011;54603;45.638;11.714;2024-02-21T09:45:33;8.00;;;6.00;;
67805;SDS011;54603;45.638;11.714;2024-02-21T09:48:21;7.60;;;6.00;;
67805;SDS011;54603;45.638;11.714;2024-02-21T09:50:51;8.60;;;6.10;;
67805;SDS011;54603;45.638;11.714;2024-02-21T09:53:19;8.40;;;6.40;;
67805;SDS011;54603;45.638;11.714;2024-02-21T09:55:45;7.60;;;6.30;;
67805;SDS011;54603;45.638;11.714;2024-02-21T09:58:12;7.90;;;6.20;;
67805;SDS011;54603;45.638;11.714;2024-02-21T10:00:38;8.70;;;6.80;;
67805;SDS011;54603;45.638;11.714;2024-02-21T10:03:04;7.50;;;5.90;;
67805;SDS011;54603;45.638;11.714;2024-02-21T10:05:36;8.50;;;6.30;;
67805;SDS011;54603;45.638;11.714;2024-02-21T10:08:03;8.10;;;6.50;;
67805;SDS011;54603;45.638;11.714;2024-02-21T10:10:29;7.50;;;6.40;;
67805;SDS011;54603;45.638;11.714;2024-02-21T10:12:56;8.00;;;6.10;;
67805;SDS011;54603;45.638;11.714;2024-02-21T10:15:24;7.40;;;6.40;;
67805;SDS011;54603;45.638;11.714;2024-02-21T10:17:58;6.80;;;5.90;;
67805;SDS011;54603;45.638;11.714;2024-02-21T10:20:25;8.00;;;6.30;;
67805;SDS011;54603;45.638;11.714;2024-02-21T10:23:03;8.30;;;6.00;;
67805;SDS011;54603;45.638;11.714;2024-02-21T10:25:35;8.90;;;5.90;;
67805;SDS011;54603;45.638;11.714;2024-02-21T10:28:07;10.00;;;6.10;;
67805;SDS011;54603;45.638;11.714;2024-02-21T10:30:32;9.60;;;5.70;;
67805;SDS011;54603;45.638;11.714;2024-02-21T10:32:58;9.20;;;6.30;;
67805;SDS011;54603;45.638;11.714;2024-02-21T10:35:28;8.10;;;6.00;;
67805;SDS011;54603;45.638;11.714;2024-02-21T10:37:56;9.90;;;6.20;;
67805;SDS011;54603;45.638;11.714;2024-02-21T10:40:27;7.60;;;6.10;;
67805;SDS011;54603;45.638;11.714;2024-02-21T10:42:58;7.40;;;5.70;;
67805;SDS011;54603;45.638;11.714;2024-02-21T10:45:34;9.90;;;6.30;;
67805;SDS011;54603;45.638;11.714;2024-02-21T10:48:15;8.40;;;6.00;;
67805;SDS011;54603;45.638;11.714;2024-02-21T10:50:57;8.60;;;6.10;;
67805;SDS011;54603;45.638;11.714;2024-02-21T10:58:43;7.00;;;5.70;;
67805;SDS011;54603;45.638;11.714;2024-02-21T11:01:10;12.80;;;5.70;;
67805;SDS011;54603;45.638;11.714;2024-02-21T11:03:42;6.50;;;5.70;;
67805;SDS011;54603;45.638;11.714;2024-02-21T11:06:13;9.20;;;5.80;;
67805;SDS011;54603;45.638;11.714;2024-02-21T11:08:40;8.10;;;5.10;;
67805;SDS011;54603;45.638;11.714;2024-02-21T11:11:06;7.50;;;5.80;;
67805;SDS011;54603;45.638;11.714;2024-02-21T11:13:35;9.90;;;5.90;;
67805;SDS011;54603;45.638;11.714;2024-02-21T11:18:37;8.50;;;6.20;;
67805;SDS011;54603;45.638;11.714;2024-02-21T11:21:03;8.00;;;5.90;;
67805;SDS011;54603;45.638;11.714;2024-02-21T11:23:31;9.50;;;5.60;;
67805;SDS011;54603;45.638;11.714;2024-02-21T11:26:07;9.10;;;6.00;;
67805;SDS011;54603;45.638;11.714;2024-02-21T11:28:36;9.30;;;6.60;;
67805;SDS011;54603;45.638;11.714;2024-02-21T11:31:12;8.00;;;5.90;;
67805;SDS011;54603;45.638;11.714;2024-02-21T11:33:40;12.40;;;5.60;;
67805;SDS011;54603;45.638;11.714;2024-02-21T11:36:23;6.80;;;5.60;;
67805;SDS011;54603;45.638;11.714;2024-02-21T11:38:51;9.50;;;5.20;;
67805;SDS011;54603;45.638;11.714;2024-02-21T11:41:18;13.00;;;5.90;;
67805;SDS011;54603;45.638;11.714;2024-02-21T11:43:43;7.80;;;6.40;;
67805;SDS011;54603;45.638;11.714;2024-02-21T11:46:09;7.30;;;5.60;;
67805;SDS011;54603;45.638;11.714;2024-02-21T11:48:35;7.70;;;6.00;;
67805;SDS011;54603;45.638;11.714;2024-02-21T11:51:01;10.20;;;5.50;;
67805;SDS011;54603;45.638;11.714;2024-02-21T11:53:29;8.30;;;5.30;;
67805;SDS011;54603;45.638;11.714;2024-02-21T11:55:56;7.80;;;5.50;;
67805;SDS011;54603;45.638;11.714;2024-02-21T11:58:22;9.40;;;7.00;;
67805;SDS011;54603;45.638;11.714;2024-02-21T12:00:49;9.00;;;7.00;;
67805;SDS011;54603;45.638;11.714;2024-02-21T12:03:15;9.10;;;7.10;;
67805;SDS011;54603;45.638;11.714;2024-02-21T12:05:41;8.70;;;6.30;;
67805;SDS011;54603;45.638;11.714;2024-02-21T12:08:07;11.10;;;8.80;;
67805;SDS011;54603;45.638;11.714;2024-02-21T12:10:35;7.70;;;5.70;;
67805;SDS011;54603;45.638;11.714;2024-02-21T12:13:10;7.60;;;5.80;;
67805;SDS011;54603;45.638;11.714;2024-02-21T12:15:39;12.00;;;9.00;;
67805;SDS011;54603;45.638;11.714;2024-02-21T12:18:06;11.40;;;8.60;;
67805;SDS011;54603;45.638;11.714;2024-02-21T12:20:31;12.70;;;7.90;;
67805;SDS011;54603;45.638;11.714;2024-02-21T12:23:00;8.60;;;6.70;;
67805;SDS011;54603;45.638;11.714;2024-02-21T12:25:26;12.90;;;10.30;;
67805;SDS011;54603;45.638;11.714;2024-02-21T12:27:54;9.70;;;7.90;;
67805;SDS011;54603;45.638;11.714;2024-02-21T12:30:21;7.50;;;5.90;;
67805;SDS011;54603;45.638;11.714;2024-02-21T12:32:47;11.30;;;8.00;;
67805;SDS011;54603;45.638;11.714;2024-02-21T12:35:14;8.80;;;6.50;;
67805;SDS011;54603;45.638;11.714;2024-02-21T12:37:40;18.90;;;14.80;;
67805;SDS011;54603;45.638;11.714;2024-02-21T12:40:08;11.10;;;8.50;;
67805;SDS011;54603;45.638;11.714;2024-02-21T12:42:40;9.00;;;5.30;;
67805;SDS011;54603;45.638;11.714;2024-02-21T12:45:06;8.80;;;5.10;;
67805;SDS011;54603;45.638;11.714;2024-02-21T12:47:33;12.00;;;7.40;;
67805;SDS011;54603;45.638;11.714;2024-02-21T12:49:58;10.10;;;7.90;;
67805;SDS011;54603;45.638;11.714;2024-02-21T12:52:25;8.70;;;5.80;;
67805;SDS011;54603;45.638;11.714;2024-02-21T12:54:52;10.80;;;6.00;;
67805;SDS011;54603;45.638;11.714;2024-02-21T12:57:23;10.40;;;6.50;;
67805;SDS011;54603;45.638;11.714;2024-02-21T12:59:57;7.70;;;4.90;;
67805;SDS011;54603;45.638;11.714;2024-02-21T13:02:24;10.80;;;5.90;;
67805;SDS011;54603;45.638;11.714;2024-02-21T13:04:50;12.90;;;9.00;;
67805;SDS011;54603;45.638;11.714;2024-02-21T13:07:17;9.30;;;5.70;;
67805;SDS011;54603;45.638;11.714;2024-02-21T13:09:44;11.10;;;8.50;;
67805;SDS011;54603;45.638;11.714;2024-02-21T13:12:10;12.40;;;9.10;;
67805;SDS011;54603;45.638;11.714;2024-02-21T13:14:37;10.70;;;8.10;;
67805;SDS011;54603;45.638;11.714;2024-02-21T13:17:04;12.20;;;7.80;;
67805;SDS011;54603;45.638;11.714;2024-02-21T13:19:30;11.00;;;6.20;;
67805;SDS011;54603;45.638;11.714;2024-02-21T13:21:56;14.10;;;7.90;;
67805;SDS011;54603;45.638;11.714;2024-02-21T13:24:22;13.40;;;8.40;;
67805;SDS011;54603;45.638;11.714;2024-02-21T13:26:47;9.10;;;5.90;;
67805;SDS011;54603;45.638;11.714;2024-02-21T13:29:13;13.90;;;10.70;;
67805;SDS011;54603;45.638;11.714;2024-02-21T13:31:39;11.90;;;7.70;;
67805;SDS011;54603;45.638;11.714;2024-02-21T13:34:05;9.80;;;6.60;;
67805;SDS011;54603;45.638;11.714;2024-02-21T13:36:31;11.80;;;8.20;;
67805;SDS011;54603;45.638;11.714;2024-02-21T13:38:56;9.80;;;7.20;;
67805;SDS011;54603;45.638;11.714;2024-02-21T13:41:22;11.30;;;9.70;;
67805;SDS011;54603;45.638;11.714;2024-02-21T13:43:48;9.70;;;6.40;;
67805;SDS011;54603;45.638;11.714;2024-02-21T13:46:14;8.50;;;5.90;;
67805;SDS011;54603;45.638;11.714;2024-02-21T13:48:41;9.10;;;5.20;;
67805;SDS011;54603;45.638;11.714;2024-02-21T13:51:07;8.50;;;6.20;;
67805;SDS011;54603;45.638;11.714;2024-02-21T13:53:33;16.10;;;11.40;;
67805;SDS011;54603;45.638;11.714;2024-02-21T13:56:00;9.70;;;7.10;;
67805;SDS011;54603;45.638;11.714;2024-02-21T13:58:30;10.20;;;6.70;;
67805;SDS011;54603;45.638;11.714;2024-02-21T14:00:56;10.80;;;7.80;;
67805;SDS011;54603;45.638;11.714;2024-02-21T14:03:22;10.50;;;8.50;;
67805;SDS011;54603;45.638;11.714;2024-02-21T14:05:53;9.30;;;6.70;;
67805;SDS011;54603;45.638;11.714;2024-02-21T14:08:20;9.30;;;6.40;;
67805;SDS011;54603;45.638;11.714;2024-02-21T14:10:48;8.70;;;7.20;;
67805;SDS011;54603;45.638;11.714;2024-02-21T14:13:14;10.20;;;7.30;;
67805;SDS011;54603;45.638;11.714;2024-02-21T14:15:44;13.00;;;9.90;;
67805;SDS011;54603;45.638;11.714;2024-02-21T14:18:15;21.70;;;13.90;;
67805;SDS011;54603;45.638;11.714;2024-02-21T14:20:41;19.00;;;14.60;;
67805;SDS011;54603;45.638;11.714;2024-02-21T14:23:08;22.90;;;16.20;;
67805;SDS011;54603;45.638;11.714;2024-02-21T14:25:47;19.50;;;14.00;;
67805;SDS011;54603;45.638;11.714;2024-02-21T14:28:17;12.10;;;8.60;;
67805;SDS011;54603;45.638;11.714;2024-02-21T14:30:44;15.50;;;12.20;;
67805;SDS011;54603;45.638;11.714;2024-02-21T14:33:12;18.80;;;13.90;;